sensor_id;sensor_type;location;lat;lon;timestamp;temperature;humidity
14170;DHT22;63889;50.596;8.690;2023-06-22T00:01:53;22.80;99.90
14170;DHT22;63889;50.596;8.690;2023-06-22T00:04:18;22.70;99.90
14170;DHT22;63889;50.596;8.690;2023-06-22T00:06:44;22.80;99.90
14170;DHT22;63889;50.596;8.690;2023-06-22T00:09:09;22.80;99.90
14170;DHT22;63889;50.596;8.690;2023-06-22T00:11:36;22.90;99.90
14170;DHT22;63889;50.596;8.690;2023-06-22T00:14:02;22.90;99.90
14170;DHT22;63889;50.596;8.690;2023-06-22T00:16:28;22.60;99.90
14170;DHT22;63889;50.596;8.690;2023-06-22T00:18:53;22.70;99.90
14170;DHT22;63889;50.596;8.690;2023-06-22T00:21:19;22.70;99.90
14170;DHT22;63889;50.596;8.690;2023-06-22T00:23:47;22.60;99.90
14170;DHT22;63889;50.596;8.690;2023-06-22T00:26:14;22.70;99.90
14170;DHT22;63889;50.596;8.690;2023-06-22T00:28:39;22.70;99.90
14170;DHT22;63889;50.596;8.690;2023-06-22T00:31:05;22.70;99.90
14170;DHT22;63889;50.596;8.690;2023-06-22T00:33:31;22.70;99.90
14170;DHT22;63889;50.596;8.690;2023-06-22T00:35:57;22.70;99.90
14170;DHT22;63889;50.596;8.690;2023-06-22T00:38:22;22.80;99.90
14170;DHT22;63889;50.596;8.690;2023-06-22T00:40:48;22.60;99.90
14170;DHT22;63889;50.596;8.690;2023-06-22T00:43:13;22.80;99.90
14170;DHT22;63889;50.596;8.690;2023-06-22T00:45:39;22.80;99.90
14170;DHT22;63889;50.596;8.690;2023-06-22T00:48:05;22.80;99.90
14170;DHT22;63889;50.596;8.690;2023-06-22T00:50:32;22.70;99.90
14170;DHT22;63889;50.596;8.690;2023-06-22T00:53:01;22.70;99.90
14170;DHT22;63889;50.596;8.690;2023-06-22T00:55:32;22.80;99.90
14170;DHT22;63889;50.596;8.690;2023-06-22T00:57:58;22.80;99.90
14170;DHT22;63889;50.596;8.690;2023-06-22T01:00:24;22.70;99.90
14170;DHT22;63889;50.596;8.690;2023-06-22T01:02:50;22.70;99.90
14170;DHT22;63889;50.596;8.690;2023-06-22T01:05:21;22.60;99.90
14170;DHT22;63889;50.596;8.690;2023-06-22T01:08:16;22.70;99.90
14170;DHT22;63889;50.596;8.690;2023-06-22T01:13:28;22.60;99.90
14170;DHT22;63889;50.596;8.690;2023-06-22T01:18:42;22.50;99.90
14170;DHT22;63889;50.596;8.690;2023-06-22T01:21:12;22.60;99.90
14170;DHT22;63889;50.596;8.690;2023-06-22T01:23:53;22.60;99.90
14170;DHT22;63889;50.596;8.690;2023-06-22T01:29:10;22.50;99.90
14170;DHT22;63889;50.596;8.690;2023-06-22T01:31:39;22.50;99.90
14170;DHT22;63889;50.596;8.690;2023-06-22T01:34:06;22.30;99.90
14170;DHT22;63889;50.596;8.690;2023-06-22T01:36:33;22.40;99.90
14170;DHT22;63889;50.596;8.690;2023-06-22T01:39:01;22.50;99.90
14170;DHT22;63889;50.596;8.690;2023-06-22T01:41:29;22.50;99.90
14170;DHT22;63889;50.596;8.690;2023-06-22T01:43:56;22.60;99.90
14170;DHT22;63889;50.596;8.690;2023-06-22T01:46:22;22.60;99.90
14170;DHT22;63889;50.596;8.690;2023-06-22T01:48:48;22.60;99.90
14170;DHT22;63889;50.596;8.690;2023-06-22T01:51:15;22.60;99.90
14170;DHT22;63889;50.596;8.690;2023-06-22T01:53:41;22.50;99.90
14170;DHT22;63889;50.596;8.690;2023-06-22T01:56:06;22.50;99.90
14170;DHT22;63889;50.596;8.690;2023-06-22T01:58:33;22.30;99.90
14170;DHT22;63889;50.596;8.690;2023-06-22T02:01:09;22.20;99.90
14170;DHT22;63889;50.596;8.690;2023-06-22T02:03:40;22.20;99.90
14170;DHT22;63889;50.596;8.690;2023-06-22T02:06:13;22.20;99.90
14170;DHT22;63889;50.596;8.690;2023-06-22T02:08:53;22.10;99.90
14170;DHT22;63889;50.596;8.690;2023-06-22T02:11:21;22.00;99.90
14170;DHT22;63889;50.596;8.690;2023-06-22T02:13:48;22.10;99.90
14170;DHT22;63889;50.596;8.690;2023-06-22T02:16:14;22.10;99.90
14170;DHT22;63889;50.596;8.690;2023-06-22T02:18:51;22.20;99.90
14170;DHT22;63889;50.596;8.690;2023-06-22T02:21:20;22.30;99.90
14170;DHT22;63889;50.596;8.690;2023-06-22T02:23:46;22.30;99.90
14170;DHT22;63889;50.596;8.690;2023-06-22T02:26:12;22.30;99.90
14170;DHT22;63889;50.596;8.690;2023-06-22T02:28:38;22.20;99.90
14170;DHT22;63889;50.596;8.690;2023-06-22T02:31:03;22.00;99.90
14170;DHT22;63889;50.596;8.690;2023-06-22T02:33:29;21.90;99.90
14170;DHT22;63889;50.596;8.690;2023-06-22T02:35:55;21.90;99.90
14170;DHT22;63889;50.596;8.690;2023-06-22T02:38:20;21.80;99.90
14170;DHT22;63889;50.596;8.690;2023-06-22T02:40:46;21.80;99.90
14170;DHT22;63889;50.596;8.690;2023-06-22T02:43:12;21.90;99.90
14170;DHT22;63889;50.596;8.690;2023-06-22T02:45:38;22.00;99.90
14170;DHT22;63889;50.596;8.690;2023-06-22T02:48:04;22.00;99.90
14170;DHT22;63889;50.596;8.690;2023-06-22T02:50:30;22.10;99.90
14170;DHT22;63889;50.596;8.690;2023-06-22T02:52:55;22.00;99.90
14170;DHT22;63889;50.596;8.690;2023-06-22T02:55:21;21.90;99.90
14170;DHT22;63889;50.596;8.690;2023-06-22T02:57:46;21.90;99.90
14170;DHT22;63889;50.596;8.690;2023-06-22T03:00:13;21.90;99.90
14170;DHT22;63889;50.596;8.690;2023-06-22T03:02:47;21.90;99.90
14170;DHT22;63889;50.596;8.690;2023-06-22T03:05:14;21.90;99.90
14170;DHT22;63889;50.596;8.690;2023-06-22T03:07:43;21.90;99.90
14170;DHT22;63889;50.596;8.690;2023-06-22T03:10:10;21.70;99.90
14170;DHT22;63889;50.596;8.690;2023-06-22T03:12:39;21.70;99.90
14170;DHT22;63889;50.596;8.690;2023-06-22T03:15:06;21.80;99.90
14170;DHT22;63889;50.596;8.690;2023-06-22T03:17:33;21.80;99.90
14170;DHT22;63889;50.596;8.690;2023-06-22T03:19:59;21.80;99.90
14170;DHT22;63889;50.596;8.690;2023-06-22T03:22:25;21.80;99.90
14170;DHT22;63889;50.596;8.690;2023-06-22T03:24:50;21.70;99.90
14170;DHT22;63889;50.596;8.690;2023-06-22T03:27:16;21.70;99.90
14170;DHT22;63889;50.596;8.690;2023-06-22T03:29:41;21.90;99.90
14170;DHT22;63889;50.596;8.690;2023-06-22T03:32:07;21.90;99.90
14170;DHT22;63889;50.596;8.690;2023-06-22T03:34:32;21.80;99.90
14170;DHT22;63889;50.596;8.690;2023-06-22T03:36:59;21.80;99.90
14170;DHT22;63889;50.596;8.690;2023-06-22T03:39:25;21.80;99.90
14170;DHT22;63889;50.596;8.690;2023-06-22T03:41:51;21.80;99.90
14170;DHT22;63889;50.596;8.690;2023-06-22T03:44:16;21.90;99.90
14170;DHT22;63889;50.596;8.690;2023-06-22T03:46:42;22.00;99.90
14170;DHT22;63889;50.596;8.690;2023-06-22T03:49:07;22.10;99.90
14170;DHT22;63889;50.596;8.690;2023-06-22T03:51:33;22.00;99.90
14170;DHT22;63889;50.596;8.690;2023-06-22T03:53:58;22.00;99.90
14170;DHT22;63889;50.596;8.690;2023-06-22T03:56:24;22.00;99.90
14170;DHT22;63889;50.596;8.690;2023-06-22T03:58:49;21.80;99.90
14170;DHT22;63889;50.596;8.690;2023-06-22T04:01:15;21.70;99.90
14170;DHT22;63889;50.596;8.690;2023-06-22T04:03:42;21.70;99.90
14170;DHT22;63889;50.596;8.690;2023-06-22T04:06:08;21.70;99.90
14170;DHT22;63889;50.596;8.690;2023-06-22T04:08:34;21.50;99.90
14170;DHT22;63889;50.596;8.690;2023-06-22T04:10:59;21.50;99.90
14170;DHT22;63889;50.596;8.690;2023-06-22T04:13:25;21.60;99.90
14170;DHT22;63889;50.596;8.690;2023-06-22T04:15:50;21.50;99.90
14170;DHT22;63889;50.596;8.690;2023-06-22T04:18:16;21.40;99.90
14170;DHT22;63889;50.596;8.690;2023-06-22T04:20:41;21.40;99.90
14170;DHT22;63889;50.596;8.690;2023-06-22T04:23:07;21.50;99.90
14170;DHT22;63889;50.596;8.690;2023-06-22T04:25:32;21.40;99.90
14170;DHT22;63889;50.596;8.690;2023-06-22T04:27:58;21.30;99.90
14170;DHT22;63889;50.596;8.690;2023-06-22T04:30:24;21.30;99.90
14170;DHT22;63889;50.596;8.690;2023-06-22T04:32:49;21.30;99.90
14170;DHT22;63889;50.596;8.690;2023-06-22T04:35:24;21.40;99.90
14170;DHT22;63889;50.596;8.690;2023-06-22T04:37:50;21.50;99.90
14170;DHT22;63889;50.596;8.690;2023-06-22T04:40:21;21.50;99.90
14170;DHT22;63889;50.596;8.690;2023-06-22T04:42:47;21.50;99.90
14170;DHT22;63889;50.596;8.690;2023-06-22T04:45:17;21.40;99.90
14170;DHT22;63889;50.596;8.690;2023-06-22T04:47:43;21.50;99.90
14170;DHT22;63889;50.596;8.690;2023-06-22T04:50:13;21.40;99.90
14170;DHT22;63889;50.596;8.690;2023-06-22T04:52:39;21.50;99.90
14170;DHT22;63889;50.596;8.690;2023-06-22T04:55:05;21.50;99.90
14170;DHT22;63889;50.596;8.690;2023-06-22T04:57:31;21.50;99.90
14170;DHT22;63889;50.596;8.690;2023-06-22T05:00:00;21.40;99.90
14170;DHT22;63889;50.596;8.690;2023-06-22T05:02:41;21.50;99.90
14170;DHT22;63889;50.596;8.690;2023-06-22T05:05:07;21.50;99.90
14170;DHT22;63889;50.596;8.690;2023-06-22T05:07:36;21.60;99.90
14170;DHT22;63889;50.596;8.690;2023-06-22T05:10:03;21.50;99.90
14170;DHT22;63889;50.596;8.690;2023-06-22T05:12:29;21.60;99.90
14170;DHT22;63889;50.596;8.690;2023-06-22T05:14:55;21.60;99.90
14170;DHT22;63889;50.596;8.690;2023-06-22T05:17:21;21.60;99.90
14170;DHT22;63889;50.596;8.690;2023-06-22T05:19:47;21.60;99.90
14170;DHT22;63889;50.596;8.690;2023-06-22T05:22:16;21.70;99.90
14170;DHT22;63889;50.596;8.690;2023-06-22T05:24:42;21.70;99.90
14170;DHT22;63889;50.596;8.690;2023-06-22T05:27:08;21.70;99.90
14170;DHT22;63889;50.596;8.690;2023-06-22T05:29:33;21.70;99.90
14170;DHT22;63889;50.596;8.690;2023-06-22T05:31:59;21.80;99.90
14170;DHT22;63889;50.596;8.690;2023-06-22T05:34:25;21.80;99.90
14170;DHT22;63889;50.596;8.690;2023-06-22T05:36:51;21.90;99.90
14170;DHT22;63889;50.596;8.690;2023-06-22T05:39:16;22.00;99.90
14170;DHT22;63889;50.596;8.690;2023-06-22T05:41:43;22.20;99.90
14170;DHT22;63889;50.596;8.690;2023-06-22T05:44:08;22.10;99.90
14170;DHT22;63889;50.596;8.690;2023-06-22T05:46:34;22.20;99.90
14170;DHT22;63889;50.596;8.690;2023-06-22T05:49:00;22.10;99.90
14170;DHT22;63889;50.596;8.690;2023-06-22T05:51:25;22.10;99.90
14170;DHT22;63889;50.596;8.690;2023-06-22T05:53:51;22.10;99.90
14170;DHT22;63889;50.596;8.690;2023-06-22T05:56:17;22.30;99.90
14170;DHT22;63889;50.596;8.690;2023-06-22T05:58:42;22.30;99.90
14170;DHT22;63889;50.596;8.690;2023-06-22T06:01:08;22.20;99.90
14170;DHT22;63889;50.596;8.690;2023-06-22T06:03:33;22.30;99.90
14170;DHT22;63889;50.596;8.690;2023-06-22T06:05:59;22.30;99.90
14170;DHT22;63889;50.596;8.690;2023-06-22T06:08:25;22.40;99.90
14170;DHT22;63889;50.596;8.690;2023-06-22T06:10:50;22.40;99.90
14170;DHT22;63889;50.596;8.690;2023-06-22T06:13:18;22.50;99.90
14170;DHT22;63889;50.596;8.690;2023-06-22T06:15:43;22.50;99.90
14170;DHT22;63889;50.596;8.690;2023-06-22T06:18:10;22.50;99.90
14170;DHT22;63889;50.596;8.690;2023-06-22T06:20:35;22.60;99.90
14170;DHT22;63889;50.596;8.690;2023-06-22T06:23:01;22.70;99.90
14170;DHT22;63889;50.596;8.690;2023-06-22T06:25:27;22.60;99.90
14170;DHT22;63889;50.596;8.690;2023-06-22T06:27:52;22.70;99.90
14170;DHT22;63889;50.596;8.690;2023-06-22T06:30:20;22.80;99.90
14170;DHT22;63889;50.596;8.690;2023-06-22T06:32:46;22.90;99.90
14170;DHT22;63889;50.596;8.690;2023-06-22T06:35:13;23.00;99.90
14170;DHT22;63889;50.596;8.690;2023-06-22T06:37:40;23.00;99.90
14170;DHT22;63889;50.596;8.690;2023-06-22T06:40:07;23.00;99.90
14170;DHT22;63889;50.596;8.690;2023-06-22T06:42:47;23.10;99.90
14170;DHT22;63889;50.596;8.690;2023-06-22T06:45:17;23.10;99.90
14170;DHT22;63889;50.596;8.690;2023-06-22T06:47:43;23.10;99.90
14170;DHT22;63889;50.596;8.690;2023-06-22T06:50:10;23.20;99.90
14170;DHT22;63889;50.596;8.690;2023-06-22T06:52:35;23.30;99.90
14170;DHT22;63889;50.596;8.690;2023-06-22T06:55:01;23.30;99.90
14170;DHT22;63889;50.596;8.690;2023-06-22T06:57:28;23.50;99.90
14170;DHT22;63889;50.596;8.690;2023-06-22T06:59:57;23.50;99.90
14170;DHT22;63889;50.596;8.690;2023-06-22T07:02:23;23.60;99.90
14170;DHT22;63889;50.596;8.690;2023-06-22T07:04:49;23.70;99.90
14170;DHT22;63889;50.596;8.690;2023-06-22T07:07:15;23.70;99.90
14170;DHT22;63889;50.596;8.690;2023-06-22T07:09:40;23.70;99.90
14170;DHT22;63889;50.596;8.690;2023-06-22T07:12:06;23.80;99.90
14170;DHT22;63889;50.596;8.690;2023-06-22T07:14:32;23.90;99.90
14170;DHT22;63889;50.596;8.690;2023-06-22T07:16:58;23.90;99.90
14170;DHT22;63889;50.596;8.690;2023-06-22T07:19:25;24.00;99.90
14170;DHT22;63889;50.596;8.690;2023-06-22T07:21:52;24.00;99.90
14170;DHT22;63889;50.596;8.690;2023-06-22T07:24:19;24.10;99.90
14170;DHT22;63889;50.596;8.690;2023-06-22T07:26:46;24.10;99.90
14170;DHT22;63889;50.596;8.690;2023-06-22T07:29:12;24.20;99.90
14170;DHT22;63889;50.596;8.690;2023-06-22T07:31:37;24.30;99.90
14170;DHT22;63889;50.596;8.690;2023-06-22T07:34:05;24.30;99.90
14170;DHT22;63889;50.596;8.690;2023-06-22T07:36:30;24.40;99.90
14170;DHT22;63889;50.596;8.690;2023-06-22T07:38:56;24.60;99.90
14170;DHT22;63889;50.596;8.690;2023-06-22T07:41:22;24.60;99.90
14170;DHT22;63889;50.596;8.690;2023-06-22T07:43:48;24.70;99.90
14170;DHT22;63889;50.596;8.690;2023-06-22T07:46:13;24.80;99.90
14170;DHT22;63889;50.596;8.690;2023-06-22T07:48:39;24.80;99.90
14170;DHT22;63889;50.596;8.690;2023-06-22T07:51:07;24.90;99.90
14170;DHT22;63889;50.596;8.690;2023-06-22T07:53:32;24.80;99.90
14170;DHT22;63889;50.596;8.690;2023-06-22T07:55:58;24.90;99.90
14170;DHT22;63889;50.596;8.690;2023-06-22T07:58:23;25.00;99.90
14170;DHT22;63889;50.596;8.690;2023-06-22T08:00:49;25.10;99.90
14170;DHT22;63889;50.596;8.690;2023-06-22T08:03:15;25.30;99.90
14170;DHT22;63889;50.596;8.690;2023-06-22T08:05:40;25.30;99.90
14170;DHT22;63889;50.596;8.690;2023-06-22T08:08:06;25.40;99.90
14170;DHT22;63889;50.596;8.690;2023-06-22T08:10:31;25.50;99.90
14170;DHT22;63889;50.596;8.690;2023-06-22T08:12:57;25.50;99.90
14170;DHT22;63889;50.596;8.690;2023-06-22T08:15:22;25.60;99.90
14170;DHT22;63889;50.596;8.690;2023-06-22T08:17:48;25.70;99.90
14170;DHT22;63889;50.596;8.690;2023-06-22T08:20:14;25.80;99.90
14170;DHT22;63889;50.596;8.690;2023-06-22T08:22:40;25.90;99.90
14170;DHT22;63889;50.596;8.690;2023-06-22T08:25:07;26.10;99.90
14170;DHT22;63889;50.596;8.690;2023-06-22T08:27:33;26.20;99.90
14170;DHT22;63889;50.596;8.690;2023-06-22T08:29:59;26.10;99.90
14170;DHT22;63889;50.596;8.690;2023-06-22T08:32:26;26.20;99.90
14170;DHT22;63889;50.596;8.690;2023-06-22T08:34:53;26.20;99.90
14170;DHT22;63889;50.596;8.690;2023-06-22T08:37:19;26.20;99.90
14170;DHT22;63889;50.596;8.690;2023-06-22T08:39:45;26.30;99.90
14170;DHT22;63889;50.596;8.690;2023-06-22T08:42:11;26.50;99.90
14170;DHT22;63889;50.596;8.690;2023-06-22T08:44:37;26.60;99.90
14170;DHT22;63889;50.596;8.690;2023-06-22T08:47:03;26.60;99.90
14170;DHT22;63889;50.596;8.690;2023-06-22T08:49:29;26.60;99.90
14170;DHT22;63889;50.596;8.690;2023-06-22T08:51:54;26.80;99.90
14170;DHT22;63889;50.596;8.690;2023-06-22T08:54:22;26.80;99.90
14170;DHT22;63889;50.596;8.690;2023-06-22T08:56:48;26.90;99.90
14170;DHT22;63889;50.596;8.690;2023-06-22T08:59:13;27.00;99.90
14170;DHT22;63889;50.596;8.690;2023-06-22T09:01:39;27.20;99.90
14170;DHT22;63889;50.596;8.690;2023-06-22T09:04:04;27.20;99.90
14170;DHT22;63889;50.596;8.690;2023-06-22T09:06:31;27.30;99.90
14170;DHT22;63889;50.596;8.690;2023-06-22T09:08:57;27.60;99.90
14170;DHT22;63889;50.596;8.690;2023-06-22T09:11:25;27.60;99.90
14170;DHT22;63889;50.596;8.690;2023-06-22T09:13:51;27.70;99.90
14170;DHT22;63889;50.596;8.690;2023-06-22T09:16:18;27.70;99.90
14170;DHT22;63889;50.596;8.690;2023-06-22T09:18:47;27.80;99.90
14170;DHT22;63889;50.596;8.690;2023-06-22T09:21:13;28.00;99.90
14170;DHT22;63889;50.596;8.690;2023-06-22T09:23:38;28.10;99.90
14170;DHT22;63889;50.596;8.690;2023-06-22T09:26:04;28.10;99.90
14170;DHT22;63889;50.596;8.690;2023-06-22T09:28:30;28.00;99.90
14170;DHT22;63889;50.596;8.690;2023-06-22T09:30:55;28.00;99.90
14170;DHT22;63889;50.596;8.690;2023-06-22T09:33:24;28.10;99.90
14170;DHT22;63889;50.596;8.690;2023-06-22T09:35:49;28.20;99.90
14170;DHT22;63889;50.596;8.690;2023-06-22T09:38:16;28.40;99.90
14170;DHT22;63889;50.596;8.690;2023-06-22T09:40:42;28.50;99.90
14170;DHT22;63889;50.596;8.690;2023-06-22T09:43:07;28.80;99.90
14170;DHT22;63889;50.596;8.690;2023-06-22T09:45:33;28.80;99.90
14170;DHT22;63889;50.596;8.690;2023-06-22T09:47:58;28.90;99.90
14170;DHT22;63889;50.596;8.690;2023-06-22T09:50:24;29.10;99.90
14170;DHT22;63889;50.596;8.690;2023-06-22T09:52:49;29.10;99.90
14170;DHT22;63889;50.596;8.690;2023-06-22T09:55:20;29.10;99.90
14170;DHT22;63889;50.596;8.690;2023-06-22T09:57:46;29.00;99.90
14170;DHT22;63889;50.596;8.690;2023-06-22T10:00:12;29.20;99.90
14170;DHT22;63889;50.596;8.690;2023-06-22T10:02:43;29.40;99.90
14170;DHT22;63889;50.596;8.690;2023-06-22T10:05:09;29.40;99.90
14170;DHT22;63889;50.596;8.690;2023-06-22T10:07:35;29.30;99.90
14170;DHT22;63889;50.596;8.690;2023-06-22T10:10:06;29.30;99.90
14170;DHT22;63889;50.596;8.690;2023-06-22T10:12:31;29.20;99.90
14170;DHT22;63889;50.596;8.690;2023-06-22T10:14:57;29.40;99.90
14170;DHT22;63889;50.596;8.690;2023-06-22T10:17:22;29.70;99.90
14170;DHT22;63889;50.596;8.690;2023-06-22T10:19:48;29.50;99.90
14170;DHT22;63889;50.596;8.690;2023-06-22T10:22:13;29.60;99.90
14170;DHT22;63889;50.596;8.690;2023-06-22T10:24:39;30.00;99.90
14170;DHT22;63889;50.596;8.690;2023-06-22T10:27:10;30.20;99.90
14170;DHT22;63889;50.596;8.690;2023-06-22T10:29:36;30.10;99.90
14170;DHT22;63889;50.596;8.690;2023-06-22T10:32:01;30.00;99.90
14170;DHT22;63889;50.596;8.690;2023-06-22T10:34:27;29.80;99.90
14170;DHT22;63889;50.596;8.690;2023-06-22T10:36:53;29.60;99.90
14170;DHT22;63889;50.596;8.690;2023-06-22T10:39:18;29.40;99.90
14170;DHT22;63889;50.596;8.690;2023-06-22T10:41:44;29.70;99.90
14170;DHT22;63889;50.596;8.690;2023-06-22T10:44:09;30.10;99.90
14170;DHT22;63889;50.596;8.690;2023-06-22T10:46:36;30.40;99.90
14170;DHT22;63889;50.596;8.690;2023-06-22T10:49:01;30.50;99.90
14170;DHT22;63889;50.596;8.690;2023-06-22T10:51:27;30.60;99.90
14170;DHT22;63889;50.596;8.690;2023-06-22T10:53:53;30.70;99.90
14170;DHT22;63889;50.596;8.690;2023-06-22T10:56:19;30.70;99.90
14170;DHT22;63889;50.596;8.690;2023-06-22T10:58:45;30.60;99.90
14170;DHT22;63889;50.596;8.690;2023-06-22T11:01:11;30.40;99.90
14170;DHT22;63889;50.596;8.690;2023-06-22T11:03:37;30.50;99.90
14170;DHT22;63889;50.596;8.690;2023-06-22T11:06:02;30.80;99.90
14170;DHT22;63889;50.596;8.690;2023-06-22T11:08:28;31.20;99.90
14170;DHT22;63889;50.596;8.690;2023-06-22T11:10:54;31.30;99.90
14170;DHT22;63889;50.596;8.690;2023-06-22T11:13:19;31.50;99.90
14170;DHT22;63889;50.596;8.690;2023-06-22T11:15:45;31.50;99.90
14170;DHT22;63889;50.596;8.690;2023-06-22T11:18:10;31.20;99.90
14170;DHT22;63889;50.596;8.690;2023-06-22T11:20:36;31.10;99.90
14170;DHT22;63889;50.596;8.690;2023-06-22T11:23:05;31.10;99.90
14170;DHT22;63889;50.596;8.690;2023-06-22T11:25:33;31.40;99.90
14170;DHT22;63889;50.596;8.690;2023-06-22T11:28:03;32.00;99.90
14170;DHT22;63889;50.596;8.690;2023-06-22T11:30:30;32.00;99.90
14170;DHT22;63889;50.596;8.690;2023-06-22T11:32:58;31.90;99.90
14170;DHT22;63889;50.596;8.690;2023-06-22T11:35:24;32.10;99.90
14170;DHT22;63889;50.596;8.690;2023-06-22T11:37:49;32.30;99.90
14170;DHT22;63889;50.596;8.690;2023-06-22T11:40:15;32.30;99.90
14170;DHT22;63889;50.596;8.690;2023-06-22T11:42:43;32.60;99.90
14170;DHT22;63889;50.596;8.690;2023-06-22T11:45:08;32.80;99.90
14170;DHT22;63889;50.596;8.690;2023-06-22T11:47:34;32.70;99.90
14170;DHT22;63889;50.596;8.690;2023-06-22T11:50:00;32.70;99.90
14170;DHT22;63889;50.596;8.690;2023-06-22T11:52:26;33.00;99.90
14170;DHT22;63889;50.596;8.690;2023-06-22T11:54:52;33.10;99.90
14170;DHT22;63889;50.596;8.690;2023-06-22T11:57:18;33.20;99.90
14170;DHT22;63889;50.596;8.690;2023-06-22T11:59:43;33.40;99.90
14170;DHT22;63889;50.596;8.690;2023-06-22T12:02:09;33.50;99.90
14170;DHT22;63889;50.596;8.690;2023-06-22T12:04:35;33.20;99.90
14170;DHT22;63889;50.596;8.690;2023-06-22T12:07:00;33.30;99.90
14170;DHT22;63889;50.596;8.690;2023-06-22T12:09:27;33.30;99.90
14170;DHT22;63889;50.596;8.690;2023-06-22T12:11:53;33.00;99.90
14170;DHT22;63889;50.596;8.690;2023-06-22T12:14:18;33.30;99.90
14170;DHT22;63889;50.596;8.690;2023-06-22T12:16:44;33.50;99.90
14170;DHT22;63889;50.596;8.690;2023-06-22T12:19:10;33.60;99.90
14170;DHT22;63889;50.596;8.690;2023-06-22T12:21:37;34.20;99.50
14170;DHT22;63889;50.596;8.690;2023-06-22T12:24:04;34.70;96.50
14170;DHT22;63889;50.596;8.690;2023-06-22T12:26:30;34.30;98.30
14170;DHT22;63889;50.596;8.690;2023-06-22T12:28:55;34.00;97.60
14170;DHT22;63889;50.596;8.690;2023-06-22T12:31:21;34.20;97.90
14170;DHT22;63889;50.596;8.690;2023-06-22T12:33:46;33.90;98.00
14170;DHT22;63889;50.596;8.690;2023-06-22T12:36:12;33.60;97.80
14170;DHT22;63889;50.596;8.690;2023-06-22T12:38:38;33.40;97.50
14170;DHT22;63889;50.596;8.690;2023-06-22T12:41:03;33.40;97.70
14170;DHT22;63889;50.596;8.690;2023-06-22T12:43:29;33.20;97.70
14170;DHT22;63889;50.596;8.690;2023-06-22T12:45:54;32.90;98.50
14170;DHT22;63889;50.596;8.690;2023-06-22T12:48:21;32.90;98.30
14170;DHT22;63889;50.596;8.690;2023-06-22T12:50:47;32.60;98.80
14170;DHT22;63889;50.596;8.690;2023-06-22T12:53:13;33.00;98.40
14170;DHT22;63889;50.596;8.690;2023-06-22T12:55:38;33.20;98.20
14170;DHT22;63889;50.596;8.690;2023-06-22T12:58:04;33.40;97.70
14170;DHT22;63889;50.596;8.690;2023-06-22T13:00:30;33.10;97.30
14170;DHT22;63889;50.596;8.690;2023-06-22T13:02:55;33.10;98.50
14170;DHT22;63889;50.596;8.690;2023-06-22T13:05:21;32.90;98.20
14170;DHT22;63889;50.596;8.690;2023-06-22T13:07:47;33.00;97.90
14170;DHT22;63889;50.596;8.690;2023-06-22T13:10:12;33.10;98.40
14170;DHT22;63889;50.596;8.690;2023-06-22T13:12:38;33.20;98.20
14170;DHT22;63889;50.596;8.690;2023-06-22T13:15:04;33.80;98.00
14170;DHT22;63889;50.596;8.690;2023-06-22T13:17:29;34.10;97.70
14170;DHT22;63889;50.596;8.690;2023-06-22T13:19:55;34.50;97.50
14170;DHT22;63889;50.596;8.690;2023-06-22T13:22:31;34.40;97.50
14170;DHT22;63889;50.596;8.690;2023-06-22T13:24:58;34.40;96.60
14170;DHT22;63889;50.596;8.690;2023-06-22T13:27:24;34.00;97.10
14170;DHT22;63889;50.596;8.690;2023-06-22T13:29:50;34.20;97.70
14170;DHT22;63889;50.596;8.690;2023-06-22T13:32:16;33.90;97.30
14170;DHT22;63889;50.596;8.690;2023-06-22T13:34:42;33.80;98.10
14170;DHT22;63889;50.596;8.690;2023-06-22T13:37:08;34.00;98.10
14170;DHT22;63889;50.596;8.690;2023-06-22T13:39:33;34.20;97.60
14170;DHT22;63889;50.596;8.690;2023-06-22T13:41:59;34.20;97.50
14170;DHT22;63889;50.596;8.690;2023-06-22T13:44:24;34.40;98.10
14170;DHT22;63889;50.596;8.690;2023-06-22T13:46:56;34.10;97.70
14170;DHT22;63889;50.596;8.690;2023-06-22T13:49:22;34.30;98.30
14170;DHT22;63889;50.596;8.690;2023-06-22T13:51:48;34.00;98.00
14170;DHT22;63889;50.596;8.690;2023-06-22T13:54:14;33.70;98.50
14170;DHT22;63889;50.596;8.690;2023-06-22T13:56:40;33.90;98.00
14170;DHT22;63889;50.596;8.690;2023-06-22T13:59:05;34.20;97.20
14170;DHT22;63889;50.596;8.690;2023-06-22T14:01:34;34.30;97.20
14170;DHT22;63889;50.596;8.690;2023-06-22T14:04:00;34.20;96.90
14170;DHT22;63889;50.596;8.690;2023-06-22T14:06:27;34.30;97.60
14170;DHT22;63889;50.596;8.690;2023-06-22T14:08:52;33.70;97.70
14170;DHT22;63889;50.596;8.690;2023-06-22T14:11:18;33.20;98.50
14170;DHT22;63889;50.596;8.690;2023-06-22T14:13:43;33.10;98.60
14170;DHT22;63889;50.596;8.690;2023-06-22T14:16:09;33.30;98.40
14170;DHT22;63889;50.596;8.690;2023-06-22T14:18:34;32.90;98.60
14170;DHT22;63889;50.596;8.690;2023-06-22T14:21:00;32.80;99.00
14170;DHT22;63889;50.596;8.690;2023-06-22T14:23:26;32.70;99.80
14170;DHT22;63889;50.596;8.690;2023-06-22T14:25:52;32.70;99.60
14170;DHT22;63889;50.596;8.690;2023-06-22T14:28:17;33.00;99.30
14170;DHT22;63889;50.596;8.690;2023-06-22T14:30:43;33.00;99.80
14170;DHT22;63889;50.596;8.690;2023-06-22T14:33:09;32.70;99.90
14170;DHT22;63889;50.596;8.690;2023-06-22T14:35:34;32.50;99.90
14170;DHT22;63889;50.596;8.690;2023-06-22T14:38:00;32.40;99.90
14170;DHT22;63889;50.596;8.690;2023-06-22T14:40:25;32.00;99.90
14170;DHT22;63889;50.596;8.690;2023-06-22T14:42:51;31.90;99.90
14170;DHT22;63889;50.596;8.690;2023-06-22T14:45:16;31.60;99.90
14170;DHT22;63889;50.596;8.690;2023-06-22T14:47:42;31.60;99.90
14170;DHT22;63889;50.596;8.690;2023-06-22T14:50:08;31.60;99.90
14170;DHT22;63889;50.596;8.690;2023-06-22T14:52:33;31.30;99.90
14170;DHT22;63889;50.596;8.690;2023-06-22T14:54:59;31.20;99.90
14170;DHT22;63889;50.596;8.690;2023-06-22T14:57:24;31.30;99.90
14170;DHT22;63889;50.596;8.690;2023-06-22T14:59:50;31.40;99.90
14170;DHT22;63889;50.596;8.690;2023-06-22T15:02:16;31.50;99.90
14170;DHT22;63889;50.596;8.690;2023-06-22T15:04:41;31.20;99.90
14170;DHT22;63889;50.596;8.690;2023-06-22T15:07:07;31.20;99.90
14170;DHT22;63889;50.596;8.690;2023-06-22T15:09:32;31.10;99.90
14170;DHT22;63889;50.596;8.690;2023-06-22T15:11:58;31.10;99.90
14170;DHT22;63889;50.596;8.690;2023-06-22T15:14:27;31.00;99.90
14170;DHT22;63889;50.596;8.690;2023-06-22T15:16:52;30.70;99.90
14170;DHT22;63889;50.596;8.690;2023-06-22T15:19:18;30.70;99.90
14170;DHT22;63889;50.596;8.690;2023-06-22T15:21:43;30.80;99.90
14170;DHT22;63889;50.596;8.690;2023-06-22T15:24:09;30.70;99.90
14170;DHT22;63889;50.596;8.690;2023-06-22T15:26:34;30.60;99.90
14170;DHT22;63889;50.596;8.690;2023-06-22T15:29:00;30.50;99.90
14170;DHT22;63889;50.596;8.690;2023-06-22T15:31:27;30.40;99.90
14170;DHT22;63889;50.596;8.690;2023-06-22T15:33:52;30.50;99.90